createdAt,value
2019-04-16T00:02:18.811Z,61.30
2019-04-16T00:05:01.828Z,61.80
2019-04-16T00:07:50.877Z,62.10
2019-04-16T00:10:46.009Z,62.40
2019-04-16T00:13:43.981Z,62.50
2019-04-16T00:16:14.014Z,62.40
2019-04-16T00:18:56.653Z,62.20
2019-04-16T00:21:27.856Z,62.20
2019-04-16T00:24:18.532Z,62.80
2019-04-16T00:26:58.534Z,62.70
2019-04-16T00:29:32.611Z,62.70
2019-04-16T00:32:07.897Z,62.80
2019-04-16T00:34:36.454Z,63.30
2019-04-16T00:37:06.550Z,63.20
2019-04-16T00:39:36.575Z,63.70
2019-04-16T00:42:06.662Z,63.80
2019-04-16T00:44:37.034Z,64.30
2019-04-16T00:47:07.208Z,64.30
2019-04-16T00:49:38.209Z,64.10
2019-04-16T00:52:08.319Z,63.80
2019-04-16T00:54:39.384Z,63.40
2019-04-16T00:57:10.158Z,63.00
2019-04-16T00:59:40.225Z,62.70
2019-04-16T01:02:10.229Z,62.30
2019-04-16T01:04:40.623Z,62.70
2019-04-16T01:07:10.713Z,63.10
2019-04-16T01:09:41.109Z,63.50
2019-04-16T01:12:11.173Z,64.10
2019-04-16T01:14:41.205Z,64.20
2019-04-16T01:17:11.308Z,64.60
2019-04-16T01:19:41.956Z,64.90
2019-04-16T01:22:15.785Z,65.00
2019-04-16T01:24:44.007Z,65.50
2019-04-16T01:27:14.128Z,66.00
2019-04-16T01:29:44.478Z,66.20
2019-04-16T01:32:35.092Z,66.10
2019-04-16T01:35:42.955Z,65.80
2019-04-16T01:38:27.701Z,65.20
2019-04-16T01:41:03.260Z,65.70
2019-04-16T01:43:33.363Z,65.50
2019-04-16T01:46:03.590Z,64.50
2019-04-16T01:48:33.706Z,63.90
2019-04-16T01:51:05.385Z,63.80
2019-04-16T01:53:35.697Z,63.40
2019-04-16T01:56:05.736Z,63.40
2019-04-16T01:58:35.833Z,63.80
2019-04-16T02:01:08.100Z,64.10
2019-04-16T02:03:37.699Z,63.80
2019-04-16T02:06:07.734Z,63.80
2019-04-16T02:08:38.214Z,63.80
2019-04-16T02:11:10.674Z,63.70
2019-04-16T02:13:39.981Z,63.80
2019-04-16T02:16:10.641Z,64.20
2019-04-16T02:18:40.686Z,64.30
2019-04-16T02:21:11.220Z,64.70
2019-04-16T02:23:41.597Z,65.60
2019-04-16T02:26:12.629Z,65.80
2019-04-16T02:28:42.664Z,66.20
2019-04-16T02:31:15.438Z,66.50
2019-04-16T02:33:44.481Z,66.50
2019-04-16T02:36:14.506Z,66.40
2019-04-16T02:38:52.358Z,65.80
2019-04-16T02:41:16.377Z,65.90
2019-04-16T02:43:46.526Z,65.80
2019-04-16T02:46:16.590Z,65.90
2019-04-16T02:48:51.483Z,65.90
2019-04-16T02:51:27.581Z,66.40
2019-04-16T02:54:10.771Z,66.50
2019-04-16T02:56:58.961Z,67.00
2019-04-16T02:59:32.615Z,67.00
2019-04-16T03:02:27.473Z,67.50
2019-04-16T03:05:03.961Z,67.70
2019-04-16T03:07:33.940Z,67.40
2019-04-16T03:10:04.006Z,67.40
2019-04-16T03:12:34.258Z,67.20
2019-04-16T03:15:04.430Z,67.00
2019-04-16T03:17:45.821Z,66.60
2019-04-16T03:20:17.312Z,66.60
2019-04-16T03:22:47.313Z,66.00
2019-04-16T03:25:17.594Z,65.70
2019-04-16T03:27:47.580Z,65.50
2019-04-16T03:30:17.873Z,64.80
2019-04-16T03:32:49.438Z,64.40
2019-04-16T03:35:19.501Z,64.50
2019-04-16T03:37:49.888Z,64.80
2019-04-16T03:40:24.730Z,65.40
2019-04-16T03:42:52.181Z,66.50
2019-04-16T03:45:22.473Z,67.10
2019-04-16T03:47:52.529Z,67.50
2019-04-16T03:50:22.714Z,68.20
2019-04-16T03:52:52.714Z,68.00
2019-04-16T03:55:25.637Z,67.80
2019-04-16T03:57:54.470Z,67.80
2019-04-16T04:00:24.829Z,68.40
2019-04-16T04:02:55.408Z,67.90
2019-04-16T04:05:25.544Z,68.30
2019-04-16T04:07:55.807Z,68.60
2019-04-16T04:10:30.842Z,68.50
2019-04-16T04:12:57.814Z,68.60
2019-04-16T04:15:28.843Z,68.90
2019-04-16T04:17:59.062Z,68.80
2019-04-16T04:20:29.157Z,69.30
2019-04-16T04:23:00.089Z,69.80
2019-04-16T04:25:29.976Z,69.70
2019-04-16T04:28:00.521Z,69.30
2019-04-16T04:30:30.533Z,68.80
2019-04-16T04:33:01.560Z,69.00
2019-04-16T04:35:31.545Z,69.10
2019-04-16T04:38:04.129Z,68.60
2019-04-16T04:40:44.451Z,68.80
2019-04-16T04:43:05.046Z,68.90
2019-04-16T04:45:37.679Z,68.20
2019-04-16T04:48:06.976Z,68.40
2019-04-16T04:50:37.025Z,68.60
2019-04-16T04:53:07.005Z,67.90
2019-04-16T04:55:37.109Z,67.90
2019-04-16T04:58:07.122Z,67.60
2019-04-16T05:00:37.477Z,67.50
2019-04-16T05:03:12.469Z,67.70
2019-04-16T05:05:47.158Z,67.80
2019-04-16T05:08:17.395Z,67.80
2019-04-16T05:10:58.288Z,68.00
2019-04-16T05:13:23.935Z,67.80
2019-04-16T05:15:51.595Z,67.70
2019-04-16T05:18:21.647Z,67.40
2019-04-16T05:20:51.630Z,67.30
2019-04-16T05:23:24.644Z,67.50
2019-04-16T05:25:53.121Z,67.10
2019-04-16T05:28:23.143Z,66.40
2019-04-16T05:30:53.208Z,65.90
2019-04-16T05:33:23.261Z,65.90
2019-04-16T05:35:54.308Z,65.90
2019-04-16T05:38:24.790Z,66.20
2019-04-16T05:40:54.865Z,65.70
2019-04-16T05:43:30.018Z,65.30
2019-04-16T05:45:59.152Z,65.20
2019-04-16T05:48:29.579Z,64.70
2019-04-16T05:51:00.708Z,64.70
2019-04-16T05:53:30.711Z,65.70
2019-04-16T05:56:24.771Z,64.40
2019-04-16T05:58:54.649Z,63.50
2019-04-16T06:01:31.027Z,63.00
2019-04-16T06:04:01.084Z,62.70
2019-04-16T06:06:32.416Z,62.20
2019-04-16T06:09:02.942Z,61.90
2019-04-16T06:11:36.543Z,61.50
2019-04-16T06:14:36.790Z,60.50
2019-04-16T06:17:25.813Z,59.90
2019-04-16T06:20:19.036Z,59.80
2019-04-16T06:23:04.560Z,59.70
2019-04-16T06:25:53.498Z,59.60
2019-04-16T06:28:49.371Z,59.30
2019-04-16T06:31:39.186Z,58.70
2019-04-16T06:34:32.019Z,58.30
2019-04-16T06:37:27.424Z,58.00
2019-04-16T06:40:25.456Z,58.00
2019-04-16T06:43:10.037Z,57.70
2019-04-16T06:45:45.050Z,57.40
2019-04-16T06:48:20.101Z,57.20
2019-04-16T06:51:24.193Z,56.50
2019-04-16T06:54:28.877Z,56.30
2019-04-16T06:57:13.070Z,56.40
2019-04-16T06:59:51.859Z,56.00
2019-04-16T07:03:01.873Z,55.50
2019-04-16T07:05:50.613Z,55.20
2019-04-16T07:08:37.470Z,54.70
2019-04-16T07:11:01.202Z,54.30
2019-04-16T07:13:31.234Z,54.00
2019-04-16T07:16:01.186Z,53.20
2019-04-16T07:18:31.173Z,52.80
2019-04-16T07:21:01.187Z,52.00
2019-04-16T07:23:31.339Z,50.90
2019-04-16T07:26:03.377Z,48.60
2019-04-16T07:28:47.027Z,44.20
2019-04-16T07:31:36.140Z,37.90
2019-04-16T07:34:23.843Z,32.20
2019-04-16T07:37:22.716Z,29.10
2019-04-16T07:40:31.434Z,27.80
2019-04-16T07:43:20.418Z,27.60
2019-04-16T07:45:54.631Z,28.70
2019-04-16T07:48:35.300Z,30.90
2019-04-16T07:51:24.333Z,33.80
2019-04-16T07:54:12.433Z,36.20
2019-04-16T07:56:44.698Z,36.10
2019-04-16T07:59:14.733Z,32.50
2019-04-16T08:01:47.759Z,28.70
2019-04-16T08:04:25.552Z,27.00
2019-04-16T08:06:48.485Z,25.60
2019-04-16T08:09:18.710Z,24.30
2019-04-16T08:11:48.756Z,23.10
2019-04-16T08:14:18.757Z,22.00
2019-04-16T08:16:48.815Z,21.90
2019-04-16T08:19:19.216Z,22.10
2019-04-16T08:21:49.219Z,22.70
2019-04-16T08:24:25.414Z,22.90
2019-04-16T08:26:55.675Z,22.30
2019-04-16T08:29:26.629Z,21.30
2019-04-16T08:31:57.978Z,22.00
2019-04-16T08:34:28.862Z,22.80
2019-04-16T08:36:58.856Z,23.00
2019-04-16T08:39:29.189Z,22.50
2019-04-16T08:41:59.188Z,22.00
2019-04-16T08:44:29.239Z,21.20
2019-04-16T08:47:12.849Z,21.40
2019-04-16T08:49:43.221Z,21.70
2019-04-16T08:52:14.607Z,22.20
2019-04-16T08:54:47.445Z,21.90
2019-04-16T08:57:16.769Z,23.50
2019-04-16T08:59:46.902Z,23.50
2019-04-16T09:02:17.036Z,23.70
2019-04-16T09:04:47.115Z,23.00
2019-04-16T09:07:35.139Z,21.90
2019-04-16T09:10:17.232Z,21.10
2019-04-16T09:12:43.433Z,20.60
2019-04-16T09:15:17.303Z,20.30
2019-04-16T09:17:50.118Z,19.90
2019-04-16T09:20:26.316Z,20.60
2019-04-16T09:22:58.837Z,21.20
2019-04-16T09:25:46.698Z,21.50
2019-04-16T09:28:31.192Z,20.50
2019-04-16T09:31:22.065Z,21.50
2019-04-16T09:34:12.331Z,21.40
2019-04-16T09:37:01.479Z,21.50
2019-04-16T09:39:37.703Z,21.40
2019-04-16T09:42:07.823Z,20.80
2019-04-16T09:44:37.976Z,21.10
2019-04-16T09:47:08.185Z,21.00
2019-04-16T09:49:38.445Z,21.30
2019-04-16T09:52:08.661Z,21.50
2019-04-16T09:54:41.536Z,21.00
2019-04-16T09:57:10.648Z,20.20
2019-04-16T09:59:47.663Z,20.10
2019-04-16T10:02:21.399Z,20.30
2019-04-16T10:04:51.457Z,20.60
2019-04-16T10:07:21.546Z,21.30
2019-04-16T10:09:54.576Z,21.60
2019-04-16T10:12:23.673Z,21.20
2019-04-16T10:14:54.888Z,20.90
2019-04-16T10:17:24.952Z,21.30
2019-04-16T10:19:55.040Z,21.20
2019-04-16T10:22:25.199Z,22.10
2019-04-16T10:25:14.657Z,22.80
2019-04-16T10:27:51.319Z,23.00
2019-04-16T10:30:25.460Z,24.20
2019-04-16T10:32:55.944Z,23.70
2019-04-16T10:35:26.379Z,23.30
2019-04-16T10:37:56.547Z,23.70
2019-04-16T10:40:45.609Z,24.20
2019-04-16T10:43:44.757Z,25.20
2019-04-16T10:46:23.406Z,26.00
2019-04-16T10:49:11.797Z,26.10
2019-04-16T10:51:55.994Z,26.40
2019-04-16T10:54:48.242Z,26.10
2019-04-16T10:57:38.370Z,26.10
2019-04-16T11:00:28.292Z,26.70
2019-04-16T11:03:20.235Z,26.80
2019-04-16T11:05:57.839Z,27.10
2019-04-16T11:08:28.354Z,26.40
2019-04-16T11:10:58.473Z,25.80
2019-04-16T11:13:40.962Z,24.90
2019-04-16T11:16:18.025Z,25.20
2019-04-16T11:18:48.462Z,26.20
2019-04-16T11:21:18.718Z,26.00
2019-04-16T11:23:49.935Z,25.10
2019-04-16T11:26:19.917Z,25.60
2019-04-16T11:28:50.162Z,25.50
2019-04-16T11:31:21.765Z,26.30
2019-04-16T11:33:51.892Z,27.20
2019-04-16T11:36:22.871Z,27.60
2019-04-16T11:38:53.023Z,27.30
2019-04-16T11:41:23.079Z,27.00
2019-04-16T11:43:53.219Z,26.90
2019-04-16T11:46:23.645Z,27.20
2019-04-16T11:48:53.827Z,27.30
2019-04-16T11:51:24.010Z,27.20
2019-04-16T11:53:59.836Z,27.30
2019-04-16T11:56:29.927Z,27.60
2019-04-16T11:59:00.163Z,27.90
2019-04-16T12:01:43.382Z,28.50
2019-04-16T12:04:35.331Z,29.10
2019-04-16T12:07:23.496Z,29.70
2019-04-16T12:10:16.668Z,30.70
2019-04-16T12:13:08.714Z,30.80
2019-04-16T12:15:58.298Z,30.40
2019-04-16T12:18:50.221Z,30.30
2019-04-16T12:21:46.371Z,29.80
2019-04-16T12:24:28.832Z,29.90
2019-04-16T12:27:18.113Z,29.80
2019-04-16T12:30:05.423Z,30.00
2019-04-16T12:32:42.838Z,30.00
2019-04-16T12:35:50.160Z,30.00
2019-04-16T12:38:26.802Z,30.40
2019-04-16T12:41:04.656Z,30.50
2019-04-16T12:43:37.385Z,30.60
2019-04-16T12:46:39.117Z,30.60
2019-04-16T12:49:26.997Z,30.80
2019-04-16T12:52:07.598Z,31.10
2019-04-16T12:55:06.133Z,32.40
2019-04-16T12:57:58.703Z,31.10
2019-04-16T13:00:35.313Z,31.80
2019-04-16T13:03:17.806Z,31.10
2019-04-16T13:06:04.768Z,30.50
2019-04-16T13:08:46.675Z,30.50
2019-04-16T13:11:26.148Z,30.30
2019-04-16T13:14:12.917Z,30.00
2019-04-16T13:17:08.387Z,30.00
2019-04-16T13:19:54.496Z,30.10
2019-04-16T13:22:28.150Z,29.90
2019-04-16T13:25:14.292Z,30.00
2019-04-16T13:27:47.895Z,30.20
2019-04-16T13:30:17.292Z,30.00
2019-04-16T13:32:47.485Z,30.00
2019-04-16T13:35:17.668Z,30.10
2019-04-16T13:37:47.722Z,30.80
2019-04-16T13:40:18.628Z,30.80
2019-04-16T13:42:48.777Z,31.00
2019-04-16T13:45:32.252Z,31.10
2019-04-16T13:48:16.470Z,31.20
2019-04-16T13:50:43.683Z,31.50
2019-04-16T13:53:47.848Z,31.00
2019-04-16T13:56:30.866Z,30.70
2019-04-16T13:59:17.965Z,30.30
2019-04-16T14:02:06.011Z,29.90
2019-04-16T14:04:37.147Z,29.70
2019-04-16T14:07:07.446Z,30.00
2019-04-16T14:09:37.492Z,30.00
2019-04-16T14:12:07.511Z,29.70
2019-04-16T14:14:38.062Z,29.90
2019-04-16T14:17:10.910Z,29.20
2019-04-16T14:19:40.038Z,29.40
2019-04-16T14:22:10.300Z,29.20
2019-04-16T14:24:40.652Z,28.80
2019-04-16T14:27:13.839Z,28.80
2019-04-16T14:29:42.873Z,28.90
2019-04-16T14:32:13.024Z,29.60
2019-04-16T14:34:48.217Z,29.80
2019-04-16T14:37:18.598Z,30.00
2019-04-16T14:39:55.867Z,30.40
2019-04-16T14:42:25.940Z,30.80
2019-04-16T14:45:00.425Z,31.20
2019-04-16T14:47:33.025Z,31.90
2019-04-16T14:50:02.506Z,32.50
2019-04-16T14:52:32.851Z,32.60
2019-04-16T14:55:43.653Z,32.60
2019-04-16T14:58:38.374Z,32.90
2019-04-16T15:01:36.520Z,33.20
2019-04-16T15:04:17.537Z,33.30
2019-04-16T15:07:02.377Z,33.10
2019-04-16T15:09:46.037Z,32.70
2019-04-16T15:12:34.747Z,32.50
2019-04-16T15:15:24.988Z,32.50
2019-04-16T15:18:26.752Z,32.70
2019-04-16T15:21:21.245Z,32.80
2019-04-16T15:24:16.511Z,32.90
2019-04-16T15:27:17.982Z,33.10
2019-04-16T15:29:56.594Z,33.50
2019-04-16T15:32:44.596Z,33.50
2019-04-16T15:35:19.087Z,32.50
2019-04-16T15:38:11.481Z,31.60
2019-04-16T15:40:42.359Z,31.30
2019-04-16T15:43:30.343Z,31.40
2019-04-16T15:46:26.011Z,31.30
2019-04-16T15:49:05.662Z,31.50
2019-04-16T15:51:50.554Z,31.40
2019-04-16T15:54:44.050Z,31.60
2019-04-16T15:57:45.406Z,31.50
2019-04-16T16:00:34.980Z,32.40
2019-04-16T16:03:15.630Z,33.00
2019-04-16T16:05:51.996Z,33.30
2019-04-16T16:08:35.408Z,33.50
2019-04-16T16:11:06.336Z,33.80
2019-04-16T16:13:36.180Z,34.00
2019-04-16T16:16:09.962Z,34.40
2019-04-16T16:18:38.737Z,34.90
2019-04-16T16:21:10.024Z,35.30
2019-04-16T16:23:40.179Z,35.20
2019-04-16T16:26:10.298Z,35.20
2019-04-16T16:28:40.336Z,35.60
2019-04-16T16:31:10.354Z,35.90
2019-04-16T16:33:40.367Z,36.10
2019-04-16T16:36:10.504Z,36.30
2019-04-16T16:38:40.695Z,36.30
2019-04-16T16:41:10.746Z,36.10
2019-04-16T16:43:40.993Z,37.10
2019-04-16T16:46:19.129Z,36.70
2019-04-16T16:48:50.139Z,36.10
2019-04-16T16:51:22.915Z,36.00
2019-04-16T16:53:59.706Z,36.50
2019-04-16T16:56:55.069Z,36.80
2019-04-16T16:59:32.343Z,36.70
2019-04-16T17:02:13.552Z,36.90
2019-04-16T17:04:46.052Z,37.00
2019-04-16T17:07:17.846Z,37.20
2019-04-16T17:09:48.164Z,36.90
2019-04-16T17:12:18.749Z,37.50
2019-04-16T17:14:48.837Z,38.50
2019-04-16T17:17:18.901Z,39.20
2019-04-16T17:19:50.886Z,39.70
2019-04-16T17:22:21.196Z,39.80
2019-04-16T17:24:51.242Z,40.20
2019-04-16T17:27:21.577Z,40.40
2019-04-16T17:29:51.617Z,40.50
2019-04-16T17:32:22.062Z,41.30
2019-04-16T17:34:52.184Z,40.90
2019-04-16T17:37:27.796Z,41.40
2019-04-16T17:39:56.469Z,41.80
2019-04-16T17:42:36.912Z,41.90
2019-04-16T17:45:39.403Z,42.00
2019-04-16T17:48:22.634Z,42.40
2019-04-16T17:51:02.458Z,42.50
2019-04-16T17:53:45.435Z,42.70
2019-04-16T17:56:33.447Z,42.90
2019-04-16T17:59:06.941Z,43.40
2019-04-16T18:02:06.794Z,43.50
2019-04-16T18:04:59.039Z,43.90
2019-04-16T18:07:47.148Z,44.10
2019-04-16T18:10:34.727Z,44.40
2019-04-16T18:13:16.031Z,44.60
2019-04-16T18:15:58.688Z,45.50
2019-04-16T18:18:36.631Z,45.10
2019-04-16T18:21:43.382Z,45.60
2019-04-16T18:24:28.416Z,45.90
2019-04-16T18:27:29.545Z,46.60
2019-04-16T18:30:17.529Z,47.00
2019-04-16T18:33:06.884Z,47.40
2019-04-16T18:35:46.777Z,47.40
2019-04-16T18:38:35.926Z,47.50
2019-04-16T18:41:27.672Z,47.40
2019-04-16T18:44:08.934Z,47.80
2019-04-16T18:46:47.277Z,47.60
2019-04-16T18:49:19.106Z,47.70
2019-04-16T18:51:50.051Z,48.30
2019-04-16T18:54:20.169Z,49.30
2019-04-16T18:56:50.305Z,50.40
2019-04-16T18:59:20.688Z,51.30
2019-04-16T19:01:54.605Z,51.90
2019-04-16T19:04:25.420Z,52.50
2019-04-16T19:06:56.026Z,53.00
2019-04-16T19:09:26.170Z,53.30
2019-04-16T19:11:57.232Z,53.60
2019-04-16T19:14:27.300Z,53.80
2019-04-16T19:16:57.478Z,54.00
2019-04-16T19:19:27.570Z,54.20
2019-04-16T19:21:57.638Z,54.20
2019-04-16T19:24:28.011Z,54.40
2019-04-16T19:26:58.060Z,54.60
2019-04-16T19:29:28.053Z,55.50
2019-04-16T19:31:58.161Z,55.20
2019-04-16T19:34:28.267Z,55.30
2019-04-16T19:36:59.581Z,55.50
2019-04-16T19:39:30.119Z,55.60
2019-04-16T19:42:00.544Z,55.80
2019-04-16T19:44:33.527Z,56.00
2019-04-16T19:47:02.237Z,56.10
2019-04-16T19:49:32.142Z,56.00
2019-04-16T19:52:02.144Z,56.10
2019-04-16T19:54:32.235Z,56.40
2019-04-16T19:57:02.214Z,56.50
2019-04-16T19:59:33.318Z,56.80
2019-04-16T20:02:03.336Z,57.00
2019-04-16T20:04:33.773Z,57.80
2019-04-16T20:07:03.914Z,58.80
2019-04-16T20:09:33.961Z,59.40
2019-04-16T20:12:03.986Z,59.60
2019-04-16T20:14:36.250Z,60.20
2019-04-16T20:17:05.863Z,60.40
2019-04-16T20:19:38.253Z,60.20
2019-04-16T20:22:08.268Z,59.90
2019-04-16T20:24:39.051Z,59.80
2019-04-16T20:27:09.364Z,59.60
2019-04-16T20:29:40.471Z,59.60
2019-04-16T20:32:11.574Z,59.60
2019-04-16T20:34:45.235Z,59.50
2019-04-16T20:37:14.560Z,59.50
2019-04-16T20:39:45.118Z,59.60
2019-04-16T20:42:16.106Z,59.60
2019-04-16T20:44:46.867Z,59.80
2019-04-16T20:47:17.282Z,59.90
2019-04-16T20:49:49.198Z,59.70
2019-04-16T20:52:19.658Z,59.70
2019-04-16T20:54:52.769Z,59.70
2019-04-16T20:57:25.794Z,59.90
2019-04-16T20:59:55.627Z,60.00
2019-04-16T21:02:27.466Z,60.40
2019-04-16T21:05:02.591Z,60.80
2019-04-16T21:07:30.942Z,61.20
2019-04-16T21:10:03.514Z,61.60
2019-04-16T21:12:34.792Z,62.20
2019-04-16T21:15:05.620Z,62.60
2019-04-16T21:17:39.045Z,63.10
2019-04-16T21:20:08.182Z,63.70
2019-04-16T21:22:38.317Z,64.20
2019-04-16T21:25:12.551Z,64.80
2019-04-16T21:27:56.424Z,65.20
2019-04-16T21:30:27.395Z,65.50
2019-04-16T21:33:12.718Z,65.90
2019-04-16T21:35:45.792Z,66.30
2019-04-16T21:38:42.289Z,66.70
2019-04-16T21:41:12.841Z,67.20
2019-04-16T21:43:42.966Z,67.50
2019-04-16T21:46:12.966Z,67.80
2019-04-16T21:48:43.059Z,68.10
2019-04-16T21:51:13.109Z,68.40
2019-04-16T21:53:43.190Z,68.70
2019-04-16T21:56:13.140Z,69.10
2019-04-16T21:58:43.546Z,69.00
2019-04-16T22:01:22.637Z,69.20
2019-04-16T22:04:17.485Z,69.20
2019-04-16T22:06:49.080Z,69.50
2019-04-16T22:09:20.610Z,69.70
2019-04-16T22:11:50.573Z,70.00
2019-04-16T22:14:22.259Z,70.30
2019-04-16T22:16:52.394Z,70.20
2019-04-16T22:19:22.427Z,70.30
2019-04-16T22:21:52.601Z,70.30
2019-04-16T22:24:23.772Z,71.30
2019-04-16T22:26:55.330Z,70.60
2019-04-16T22:29:26.621Z,71.00
2019-04-16T22:31:58.114Z,71.40
2019-04-16T22:34:32.417Z,71.50
2019-04-16T22:37:02.411Z,71.60
2019-04-16T22:39:43.313Z,71.70
2019-04-16T22:42:29.802Z,71.70
2019-04-16T22:45:17.481Z,71.50
2019-04-16T22:47:47.998Z,71.40
2019-04-16T22:50:17.962Z,71.60
2019-04-16T22:52:48.004Z,72.00
2019-04-16T22:55:18.190Z,72.10
2019-04-16T22:57:48.138Z,72.30
2019-04-16T23:00:27.082Z,72.50
2019-04-16T23:02:57.095Z,72.80
2019-04-16T23:05:27.748Z,72.70
2019-04-16T23:07:59.194Z,72.50
2019-04-16T23:10:30.211Z,72.40
2019-04-16T23:13:01.449Z,72.40
2019-04-16T23:15:32.462Z,73.50
2019-04-16T23:18:02.545Z,72.80
2019-04-16T23:20:36.001Z,72.90
2019-04-16T23:23:04.252Z,73.10
2019-04-16T23:25:34.304Z,73.50
2019-04-16T23:28:09.470Z,73.50
2019-04-16T23:30:36.532Z,73.50
2019-04-16T23:33:06.540Z,73.40
2019-04-16T23:35:43.150Z,73.80
2019-04-16T23:38:08.309Z,74.20
2019-04-16T23:40:40.757Z,74.40
2019-04-16T23:43:31.857Z,74.40
2019-04-16T23:46:22.925Z,74.50
2019-04-16T23:49:27.410Z,74.60
2019-04-16T23:52:03.833Z,75.00
2019-04-16T23:54:56.032Z,75.50
2019-04-16T23:57:35.600Z,75.70
